createdAt,value
2018-01-20T00:01:35.908Z,99226.25
2018-01-20T00:04:02.182Z,99227.91
2018-01-20T00:06:28.447Z,99228.50
2018-01-20T00:08:55.443Z,99224.52
2018-01-20T00:11:40.548Z,99226.38
2018-01-20T00:14:07.825Z,99226.48
2018-01-20T00:16:34.084Z,99222.96
2018-01-20T00:19:00.326Z,99220.55
2018-01-20T00:21:27.266Z,99223.02
2018-01-20T00:23:53.501Z,99220.83
2018-01-20T00:26:25.887Z,99219.57
2018-01-20T00:28:52.126Z,99211.16
2018-01-20T00:31:18.339Z,99212.16
2018-01-20T00:33:44.598Z,99213.77
2018-01-20T00:36:11.574Z,99201.44
2018-01-20T00:38:44.861Z,99197.62
2018-01-20T00:41:11.115Z,99201.09
2018-01-20T00:43:37.362Z,99198.23
2018-01-20T00:46:03.606Z,99209.09
2018-01-20T00:48:30.011Z,99201.76
2018-01-20T00:50:56.246Z,99203.50
2018-01-20T00:53:22.478Z,99199.45
2018-01-20T00:55:48.718Z,99208.53
2018-01-20T00:58:14.931Z,99199.80
2018-01-20T01:00:41.255Z,99211.32
2018-01-20T01:03:07.517Z,99207.83
2018-01-20T01:05:33.813Z,99210.00
2018-01-20T01:08:00.048Z,99212.97
2018-01-20T01:10:26.293Z,99207.03
2018-01-20T01:12:52.555Z,99200.95
2018-01-20T01:15:19.576Z,99194.53
2018-01-20T01:17:45.804Z,99206.83
2018-01-20T01:20:12.056Z,99201.34
2018-01-20T01:22:39.052Z,99203.13
2018-01-20T01:25:05.274Z,99199.59
2018-01-20T01:27:31.510Z,99205.11
2018-01-20T01:29:57.764Z,99202.07
2018-01-20T01:32:23.981Z,99203.39
2018-01-20T01:34:50.262Z,99206.29
2018-01-20T01:37:16.492Z,99199.16
2018-01-20T01:39:43.492Z,99202.20
2018-01-20T01:42:09.754Z,99208.59
2018-01-20T01:44:36.733Z,99207.84
2018-01-20T01:47:03.062Z,99210.68
2018-01-20T01:49:29.315Z,99202.59
2018-01-20T01:51:55.625Z,99203.28
2018-01-20T01:54:21.871Z,99205.02
2018-01-20T01:56:48.118Z,99198.20
2018-01-20T01:59:14.369Z,99201.91
2018-01-20T02:01:40.611Z,99201.04
2018-01-20T02:04:06.879Z,99194.45
2018-01-20T02:06:33.127Z,99206.22
2018-01-20T02:08:59.370Z,99200.70
2018-01-20T02:11:25.643Z,99192.03
2018-01-20T02:13:52.627Z,99189.31
2018-01-20T02:16:18.859Z,99189.61
2018-01-20T02:18:45.099Z,99198.44
2018-01-20T02:21:11.317Z,99190.84
2018-01-20T02:23:37.598Z,99193.52
2018-01-20T02:26:04.581Z,99195.24
2018-01-20T02:28:30.828Z,99196.62
2018-01-20T02:30:57.144Z,99204.86
2018-01-20T02:33:23.485Z,99193.81
2018-01-20T02:35:49.704Z,99183.64
2018-01-20T02:38:15.980Z,99183.61
2018-01-20T02:40:43.006Z,99186.47
2018-01-20T02:43:09.300Z,99180.55
2018-01-20T02:45:35.618Z,99186.65
2018-01-20T02:48:01.906Z,99178.82
2018-01-20T02:50:28.142Z,99183.28
2018-01-20T02:52:54.416Z,99182.55
2018-01-20T02:55:20.660Z,99186.94
2018-01-20T02:57:47.257Z,99190.61
2018-01-20T03:00:14.228Z,99174.92
2018-01-20T03:02:40.484Z,99173.67
2018-01-20T03:05:06.721Z,99178.87
2018-01-20T03:07:32.991Z,99180.91
2018-01-20T03:09:59.963Z,99180.48
2018-01-20T03:12:27.275Z,99187.44
2018-01-20T03:14:55.000Z,99179.08
2018-01-20T03:17:21.224Z,99185.19
2018-01-20T03:19:47.480Z,99178.89
2018-01-20T03:22:13.772Z,99183.58
2018-01-20T03:24:40.000Z,99174.50
2018-01-20T03:27:06.225Z,99184.17
2018-01-20T03:29:32.504Z,99180.60
2018-01-20T03:31:58.736Z,99180.11
2018-01-20T03:34:25.024Z,99176.08
2018-01-20T03:36:51.465Z,99170.21
2018-01-20T03:39:17.728Z,99176.73
2018-01-20T03:41:43.994Z,99177.22
2018-01-20T03:44:10.976Z,99173.78
2018-01-20T03:46:37.232Z,99174.77
2018-01-20T03:49:03.772Z,99177.38
2018-01-20T03:51:30.052Z,99172.61
2018-01-20T03:53:56.270Z,99177.78
2018-01-20T03:56:22.763Z,99181.84
2018-01-20T03:58:49.009Z,99175.67
2018-01-20T04:01:15.223Z,99176.08
2018-01-20T04:03:41.476Z,99183.09
2018-01-20T04:06:08.451Z,99183.78
2018-01-20T04:08:34.703Z,99171.25
2018-01-20T04:11:00.931Z,99189.46
2018-01-20T04:13:27.195Z,99183.92
2018-01-20T04:15:53.470Z,99178.02
2018-01-20T04:18:19.739Z,99180.39
2018-01-20T04:20:47.475Z,99180.09
2018-01-20T04:23:13.744Z,99175.59
2018-01-20T04:25:39.979Z,99175.88
2018-01-20T04:28:06.938Z,99175.98
2018-01-20T04:30:33.940Z,99175.72
2018-01-20T04:33:00.156Z,99171.42
2018-01-20T04:35:26.416Z,99169.49
2018-01-20T04:37:52.677Z,99171.55
2018-01-20T04:40:19.688Z,99168.23
2018-01-20T04:42:45.952Z,99164.50
2018-01-20T04:45:12.274Z,99167.81
2018-01-20T04:47:39.234Z,99163.05
2018-01-20T04:50:06.252Z,99160.95
2018-01-20T04:52:32.496Z,99160.97
2018-01-20T04:54:59.548Z,99162.98
2018-01-20T04:57:26.515Z,99157.43
2018-01-20T04:59:52.815Z,99147.56
2018-01-20T05:02:19.052Z,99144.44
2018-01-20T05:04:46.041Z,99142.06
2018-01-20T05:07:12.287Z,99153.58
2018-01-20T05:09:38.579Z,99137.36
2018-01-20T05:12:04.922Z,99134.97
2018-01-20T05:14:31.851Z,99136.22
2018-01-20T05:16:58.131Z,99132.72
2018-01-20T05:19:24.424Z,99132.49
2018-01-20T05:21:50.715Z,99136.38
2018-01-20T05:24:16.982Z,99133.91
2018-01-20T05:26:43.203Z,99139.77
2018-01-20T05:29:09.456Z,99139.08
2018-01-20T05:31:35.676Z,99141.70
2018-01-20T05:34:02.000Z,99137.97
2018-01-20T05:36:28.240Z,99140.22
2018-01-20T05:38:54.527Z,99132.15
2018-01-20T05:41:21.472Z,99127.85
2018-01-20T05:43:48.618Z,99128.80
2018-01-20T05:46:14.896Z,99124.05
2018-01-20T05:48:41.144Z,99123.13
2018-01-20T05:51:07.456Z,99118.87
2018-01-20T05:53:33.658Z,99117.39
2018-01-20T05:55:59.908Z,99116.17
2018-01-20T05:58:26.195Z,99120.58
2018-01-20T06:00:52.441Z,99120.32
2018-01-20T06:03:18.668Z,99116.36
2018-01-20T06:05:45.659Z,99118.48
2018-01-20T06:08:12.955Z,99114.41
2018-01-20T06:10:39.215Z,99120.46
2018-01-20T06:13:05.457Z,99117.69
2018-01-20T06:15:31.725Z,99113.18
2018-01-20T06:17:57.969Z,99117.50
2018-01-20T06:20:24.189Z,99114.66
2018-01-20T06:22:50.549Z,99118.42
2018-01-20T06:25:17.609Z,99118.27
2018-01-20T06:27:43.843Z,99117.85
2018-01-20T06:30:10.390Z,99129.71
2018-01-20T06:32:36.596Z,99117.73
2018-01-20T06:35:03.581Z,99108.95
2018-01-20T06:37:29.844Z,99118.06
2018-01-20T06:39:56.095Z,99107.06
2018-01-20T06:42:23.052Z,99111.11
2018-01-20T06:44:49.334Z,99115.73
2018-01-20T06:47:15.668Z,99114.33
2018-01-20T06:49:42.096Z,99112.05
2018-01-20T06:52:08.611Z,99110.02
2018-01-20T06:54:35.044Z,99107.76
2018-01-20T06:57:01.451Z,99111.61
2018-01-20T06:59:27.872Z,99108.30
2018-01-20T07:01:54.598Z,99105.19
2018-01-20T07:04:21.631Z,99112.11
2018-01-20T07:06:48.013Z,99109.05
2018-01-20T07:09:14.244Z,99114.97
2018-01-20T07:11:40.581Z,99112.39
2018-01-20T07:14:06.851Z,99115.30
2018-01-20T07:16:33.227Z,99114.81
2018-01-20T07:18:59.523Z,99116.62
2018-01-20T07:21:25.828Z,99112.28
2018-01-20T07:23:52.119Z,99112.92
2018-01-20T07:26:18.347Z,99108.20
2018-01-20T07:28:44.675Z,99115.94
2018-01-20T07:31:10.883Z,99114.91
2018-01-20T07:33:37.872Z,99110.02
2018-01-20T07:36:04.164Z,99112.82
2018-01-20T07:38:30.906Z,99115.72
2018-01-20T07:40:58.338Z,99119.36
2018-01-20T07:43:24.604Z,99117.14
2018-01-20T07:45:51.694Z,99114.83
2018-01-20T07:48:17.967Z,99118.14
2018-01-20T07:50:44.290Z,99117.02
2018-01-20T07:53:11.284Z,99117.59
2018-01-20T07:55:37.563Z,99117.02
2018-01-20T07:58:04.118Z,99121.83
2018-01-20T08:00:31.083Z,99118.34
2018-01-20T08:02:57.305Z,99121.73
2018-01-20T08:05:23.675Z,99126.20
2018-01-20T08:07:50.911Z,99119.28
2018-01-20T08:10:17.229Z,99116.97
2018-01-20T08:12:43.661Z,99117.27
2018-01-20T08:15:09.915Z,99115.73
2018-01-20T08:17:36.247Z,99117.19
2018-01-20T08:20:02.501Z,99116.23
2018-01-20T08:22:28.744Z,99112.52
2018-01-20T08:24:55.140Z,99119.45
2018-01-20T08:27:21.724Z,99116.59
2018-01-20T08:29:48.732Z,99112.27
2018-01-20T08:32:15.073Z,99114.50
2018-01-20T08:34:41.331Z,99114.03
2018-01-20T08:37:07.604Z,99115.63
2018-01-20T08:39:33.840Z,99113.19
2018-01-20T08:42:00.153Z,99110.22
2018-01-20T08:44:26.405Z,99113.82
2018-01-20T08:46:52.764Z,99102.06
2018-01-20T08:49:19.045Z,99112.19
2018-01-20T08:51:45.338Z,99118.78
2018-01-20T08:54:11.613Z,99114.70
2018-01-20T08:56:37.939Z,99112.70
2018-01-20T08:59:04.323Z,99119.22
2018-01-20T09:01:30.689Z,99119.14
2018-01-20T09:03:56.963Z,99114.87
2018-01-20T09:06:23.289Z,99115.00
2018-01-20T09:08:49.581Z,99115.55
2018-01-20T09:11:15.871Z,99114.11
2018-01-20T09:13:42.529Z,99112.87
2018-01-20T09:16:09.808Z,99106.14
2018-01-20T09:18:36.340Z,99112.42
2018-01-20T09:21:02.614Z,99106.95
2018-01-20T09:23:28.874Z,99111.05
2018-01-20T09:25:55.880Z,99104.05
2018-01-20T09:28:22.384Z,99108.72
2018-01-20T09:30:48.752Z,99100.71
2018-01-20T09:33:15.240Z,99100.62
2018-01-20T09:35:42.297Z,99111.88
2018-01-20T09:38:08.621Z,99099.76
2018-01-20T09:40:35.729Z,99102.13
2018-01-20T09:43:02.116Z,99101.87
2018-01-20T09:45:28.375Z,99101.66
2018-01-20T09:47:54.660Z,99108.39
2018-01-20T09:50:21.802Z,99100.75
2018-01-20T09:52:48.821Z,99095.83
2018-01-20T09:55:15.142Z,99091.08
2018-01-20T09:57:41.430Z,99097.73
2018-01-20T10:00:07.695Z,99094.29
2018-01-20T10:02:33.963Z,99097.52
2018-01-20T10:05:00.249Z,99093.11
2018-01-20T10:07:27.300Z,99089.34
2018-01-20T10:09:53.579Z,99090.19
2018-01-20T10:12:21.612Z,99088.47
2018-01-20T10:14:47.856Z,99079.59
2018-01-20T10:17:14.123Z,99076.13
2018-01-20T10:19:41.992Z,99077.82
2018-01-20T10:22:08.272Z,99083.91
2018-01-20T10:24:34.522Z,99082.05
2018-01-20T10:27:00.798Z,99077.58
2018-01-20T10:29:27.033Z,99077.77
2018-01-20T10:31:53.298Z,99079.06
2018-01-20T10:34:19.574Z,99065.55
2018-01-20T10:36:45.844Z,99057.59
2018-01-20T10:39:12.105Z,99062.53
2018-01-20T10:41:38.368Z,99060.00
2018-01-20T10:44:04.624Z,99054.77
2018-01-20T10:46:30.829Z,99051.48
2018-01-20T10:48:57.153Z,99050.16
2018-01-20T10:51:23.473Z,99043.22
2018-01-20T10:53:51.473Z,99041.94
2018-01-20T10:56:18.363Z,99042.47
2018-01-20T10:58:44.641Z,99036.73
2018-01-20T11:01:11.032Z,99016.50
2018-01-20T11:03:38.028Z,99034.84
2018-01-20T11:06:04.309Z,99023.45
2018-01-20T11:08:30.595Z,99023.91
2018-01-20T11:10:56.868Z,99022.31
2018-01-20T11:13:23.180Z,99025.37
2018-01-20T11:15:49.428Z,99008.66
2018-01-20T11:18:15.728Z,99018.66
2018-01-20T11:20:41.964Z,99012.55
2018-01-20T11:23:08.239Z,99006.53
2018-01-20T11:25:35.207Z,99002.53
2018-01-20T11:28:01.517Z,98997.91
2018-01-20T11:30:29.318Z,98992.27
2018-01-20T11:32:55.619Z,98988.16
2018-01-20T11:35:21.945Z,98980.51
2018-01-20T11:37:48.235Z,98983.61
2018-01-20T11:40:14.489Z,98977.72
2018-01-20T11:42:40.781Z,98969.34
2018-01-20T11:45:07.219Z,98967.19
2018-01-20T11:47:33.473Z,98960.07
2018-01-20T11:49:59.881Z,98954.03
2018-01-20T11:52:26.291Z,98947.40
2018-01-20T11:54:52.555Z,98947.69
2018-01-20T11:57:18.799Z,98953.27
2018-01-20T11:59:45.888Z,98953.97
2018-01-20T12:02:12.185Z,98944.78
2018-01-20T12:04:39.285Z,98939.32
2018-01-20T12:07:05.553Z,98931.08
2018-01-20T12:09:31.806Z,98926.87
2018-01-20T12:11:59.840Z,98932.83
2018-01-20T12:14:26.133Z,98918.58
2018-01-20T12:16:52.422Z,98915.70
2018-01-20T12:19:19.560Z,98918.77
2018-01-20T12:21:45.910Z,98907.31
2018-01-20T12:24:12.914Z,98923.05
2018-01-20T12:26:39.205Z,98914.62
2018-01-20T12:29:05.498Z,98911.37
2018-01-20T12:31:31.810Z,98903.74
2018-01-20T12:33:58.074Z,98901.29
2018-01-20T12:36:25.341Z,98911.55
2018-01-20T12:38:51.710Z,98898.76
2018-01-20T12:41:18.015Z,98895.73
2018-01-20T12:43:44.401Z,98895.02
2018-01-20T12:46:10.672Z,98882.77
2018-01-20T12:48:37.865Z,98891.82
2018-01-20T12:51:04.515Z,98890.47
2018-01-20T12:53:30.983Z,98884.29
2018-01-20T12:55:58.275Z,98884.67
2018-01-20T12:58:24.618Z,98886.92
2018-01-20T13:00:51.040Z,98874.14
2018-01-20T13:03:17.367Z,98875.80
2018-01-20T13:05:44.371Z,98870.87
2018-01-20T13:08:11.434Z,98866.47
2018-01-20T13:10:38.504Z,98864.83
2018-01-20T13:13:04.852Z,98866.39
2018-01-20T13:15:31.151Z,98868.22
2018-01-20T13:17:57.440Z,98866.88
2018-01-20T13:20:23.716Z,98862.92
2018-01-20T13:22:50.059Z,98862.66
2018-01-20T13:25:16.385Z,98857.16
2018-01-20T13:27:42.639Z,98856.17
2018-01-20T13:30:08.947Z,98855.84
2018-01-20T13:32:35.241Z,98860.08
2018-01-20T13:35:01.557Z,98857.28
2018-01-20T13:37:27.915Z,98861.56
2018-01-20T13:39:54.940Z,98849.48
2018-01-20T13:42:29.037Z,98846.71
2018-01-20T13:44:55.323Z,98843.34
2018-01-20T13:47:21.660Z,98844.77
2018-01-20T13:49:48.664Z,98842.55
2018-01-20T13:52:14.946Z,98837.19
2018-01-20T13:54:41.327Z,98835.78
2018-01-20T13:57:07.605Z,98827.28
2018-01-20T13:59:33.849Z,98835.72
2018-01-20T14:02:01.096Z,98830.59
2018-01-20T14:04:27.335Z,98821.52
2018-01-20T14:06:53.635Z,98830.02
2018-01-20T14:09:20.821Z,98830.14
2018-01-20T14:11:47.144Z,98825.88
2018-01-20T14:14:13.405Z,98825.61
2018-01-20T14:16:41.164Z,98822.28
2018-01-20T14:19:07.476Z,98814.44
2018-01-20T14:21:33.693Z,98818.39
2018-01-20T14:23:59.952Z,98812.89
2018-01-20T14:26:26.269Z,98810.20
2018-01-20T14:28:52.662Z,98813.95
2018-01-20T14:31:18.928Z,98803.73
2018-01-20T14:33:45.209Z,98814.41
2018-01-20T14:36:12.253Z,98809.78
2018-01-20T14:38:39.283Z,98801.73
2018-01-20T14:41:05.584Z,98807.70
2018-01-20T14:43:31.835Z,98804.42
2018-01-20T14:45:58.067Z,98810.45
2018-01-20T14:48:24.433Z,98806.34
2018-01-20T14:50:51.571Z,98805.26
2018-01-20T14:53:18.580Z,98800.78
2018-01-20T14:55:45.283Z,98793.66
2018-01-20T14:58:11.555Z,98796.21
2018-01-20T15:00:37.788Z,98787.86
2018-01-20T15:03:04.036Z,98788.05
2018-01-20T15:05:30.332Z,98785.09
2018-01-20T15:07:56.564Z,98779.77
2018-01-20T15:10:22.859Z,98778.83
2018-01-20T15:12:49.088Z,98774.16
2018-01-20T15:15:15.390Z,98770.98
2018-01-20T15:17:42.390Z,98764.77
2018-01-20T15:20:08.615Z,98764.10
2018-01-20T15:22:35.526Z,98764.92
2018-01-20T15:25:02.496Z,98765.55
2018-01-20T15:27:28.764Z,98760.41
2018-01-20T15:29:54.994Z,98755.84
2018-01-20T15:32:21.273Z,98755.12
2018-01-20T15:34:47.515Z,98756.37
2018-01-20T15:37:13.830Z,98752.11
2018-01-20T15:39:40.134Z,98749.89
2018-01-20T15:42:06.428Z,98744.28
2018-01-20T15:44:32.729Z,98738.32
2018-01-20T15:46:59.003Z,98732.62
2018-01-20T15:49:25.295Z,98728.51
2018-01-20T15:51:51.668Z,98724.34
2018-01-20T15:54:18.727Z,98724.23
2018-01-20T15:56:45.028Z,98723.50
2018-01-20T15:59:11.360Z,98714.34
2018-01-20T16:01:37.627Z,98705.41
2018-01-20T16:04:03.954Z,98703.48
2018-01-20T16:06:30.241Z,98691.41
2018-01-20T16:08:56.511Z,98692.64
2018-01-20T16:11:22.858Z,98689.08
2018-01-20T16:13:49.968Z,98682.70
2018-01-20T16:16:16.399Z,98680.80
2018-01-20T16:18:42.726Z,98686.44
2018-01-20T16:21:09.030Z,98678.70
2018-01-20T16:23:36.309Z,98680.61
2018-01-20T16:26:02.588Z,98683.61
2018-01-20T16:28:29.638Z,98684.33
2018-01-20T16:30:56.732Z,98678.76
2018-01-20T16:33:23.089Z,98681.82
2018-01-20T16:35:49.469Z,98676.81
2018-01-20T16:38:16.049Z,98673.59
2018-01-20T16:40:42.336Z,98676.33
2018-01-20T16:43:08.628Z,98671.78
2018-01-20T16:45:34.989Z,98672.11
2018-01-20T16:48:01.348Z,98670.02
2018-01-20T16:50:27.611Z,98663.17
2018-01-20T16:52:53.936Z,98660.84
2018-01-20T16:55:20.155Z,98654.83
2018-01-20T16:57:46.423Z,98653.35
2018-01-20T17:00:20.440Z,98654.09
2018-01-20T17:02:47.455Z,98654.86
2018-01-20T17:05:14.626Z,98645.32
2018-01-20T17:07:40.857Z,98648.74
2018-01-20T17:10:07.145Z,98647.50
2018-01-20T17:12:33.465Z,98646.30
2018-01-20T17:14:59.897Z,98638.38
2018-01-20T17:17:26.201Z,98633.86
2018-01-20T17:19:53.278Z,98636.52
2018-01-20T17:22:19.675Z,98629.56
2018-01-20T17:24:46.743Z,98621.96
2018-01-20T17:27:13.134Z,98621.39
2018-01-20T17:29:39.540Z,98618.67
2018-01-20T17:32:05.822Z,98612.84
2018-01-20T17:34:33.060Z,98608.34
2018-01-20T17:36:59.550Z,98604.20
2018-01-20T17:39:25.862Z,98606.89
2018-01-20T17:41:52.171Z,98604.33
2018-01-20T17:44:19.262Z,98596.91
2018-01-20T17:46:45.528Z,98590.87
2018-01-20T17:49:11.779Z,98592.56
2018-01-20T17:51:38.821Z,98592.72
2018-01-20T17:54:05.842Z,98581.01
2018-01-20T17:56:32.100Z,98569.03
2018-01-20T17:58:59.083Z,98570.54
2018-01-20T18:01:25.363Z,98571.38
2018-01-20T18:03:51.625Z,98569.39
2018-01-20T18:06:17.900Z,98571.84
2018-01-20T18:08:44.138Z,98565.77
2018-01-20T18:11:10.414Z,98563.13
2018-01-20T18:13:36.660Z,98555.41
2018-01-20T18:16:02.919Z,98562.95
2018-01-20T18:18:29.183Z,98559.13
2018-01-20T18:20:56.220Z,98560.23
2018-01-20T18:23:22.486Z,98561.05
2018-01-20T18:25:48.835Z,98557.96
2018-01-20T18:28:15.099Z,98554.94
2018-01-20T18:30:41.399Z,98558.28
2018-01-20T18:33:07.738Z,98553.87
2018-01-20T18:35:34.040Z,98545.95
2018-01-20T18:38:00.328Z,98545.13
2018-01-20T18:40:27.372Z,98549.18
2018-01-20T18:42:53.747Z,98544.01
2018-01-20T18:45:20.012Z,98540.13
2018-01-20T18:47:46.319Z,98535.57
2018-01-20T18:50:12.624Z,98534.72
2018-01-20T18:52:39.652Z,98523.70
2018-01-20T18:55:06.156Z,98525.83
2018-01-20T18:57:39.395Z,98521.16
2018-01-20T19:00:05.725Z,98524.99
2018-01-20T19:02:32.708Z,98517.98
2018-01-20T19:04:59.009Z,98513.05
2018-01-20T19:07:25.996Z,98512.30
2018-01-20T19:09:52.278Z,98510.38
2018-01-20T19:12:19.298Z,98514.37
2018-01-20T19:14:47.048Z,98510.03
2018-01-20T19:17:13.377Z,98500.91
2018-01-20T19:19:39.674Z,98503.29
2018-01-20T19:22:05.974Z,98503.70
2018-01-20T19:24:33.707Z,98502.81
2018-01-20T19:26:59.968Z,98506.08
2018-01-20T19:29:26.941Z,98506.92
2018-01-20T19:31:53.188Z,98498.70
2018-01-20T19:34:19.503Z,98503.42
2018-01-20T19:36:52.712Z,98506.06
2018-01-20T19:39:18.996Z,98496.33
2018-01-20T19:41:46.010Z,98499.75
2018-01-20T19:44:12.303Z,98500.27
2018-01-20T19:46:38.590Z,98504.12
2018-01-20T19:49:04.889Z,98502.62
2018-01-20T19:51:31.189Z,98502.71
2018-01-20T19:53:57.489Z,98501.46
2018-01-20T19:56:23.809Z,98504.22
2018-01-20T19:58:50.093Z,98504.62
2018-01-20T20:01:16.381Z,98508.44
2018-01-20T20:03:42.631Z,98509.25
2018-01-20T20:06:09.867Z,98507.14
2018-01-20T20:08:36.866Z,98497.91
2018-01-20T20:11:03.119Z,98504.36
2018-01-20T20:13:29.424Z,98495.66
2018-01-20T20:15:56.024Z,98495.94
2018-01-20T20:18:23.048Z,98496.70
2018-01-20T20:20:49.316Z,98495.97
2018-01-20T20:23:15.676Z,98494.34
2018-01-20T20:25:41.980Z,98487.23
2018-01-20T20:28:09.028Z,98490.69
2018-01-20T20:30:35.303Z,98485.22
2018-01-20T20:33:01.596Z,98483.06
2018-01-20T20:35:27.871Z,98484.61
2018-01-20T20:37:54.243Z,98488.41
2018-01-20T20:40:20.502Z,98488.88
2018-01-20T20:42:46.779Z,98494.27
2018-01-20T20:45:13.002Z,98489.59
2018-01-20T20:47:39.298Z,98491.37
2018-01-20T20:50:05.601Z,98496.12
2018-01-20T20:52:31.965Z,98495.39
2018-01-20T20:54:58.216Z,98489.77
2018-01-20T20:57:25.155Z,98492.81
2018-01-20T20:59:51.440Z,98490.41
2018-01-20T21:02:17.886Z,98490.06
2018-01-20T21:04:44.760Z,98486.14
2018-01-20T21:07:11.135Z,98485.61
2018-01-20T21:09:37.722Z,98481.61
2018-01-20T21:12:04.154Z,98486.45
2018-01-20T21:14:30.633Z,98485.05
2018-01-20T21:16:57.608Z,98489.48
2018-01-20T21:19:24.020Z,98476.97
2018-01-20T21:21:50.997Z,98480.80
2018-01-20T21:24:17.500Z,98472.55
2018-01-20T21:26:45.148Z,98474.64
2018-01-20T21:29:12.621Z,98474.97
2018-01-20T21:31:39.876Z,98474.08
2018-01-20T21:34:06.966Z,98474.94
2018-01-20T21:36:33.230Z,98470.52
2018-01-20T21:38:59.511Z,98472.59
2018-01-20T21:41:25.781Z,98464.40
2018-01-20T21:43:52.040Z,98480.48
2018-01-20T21:46:19.276Z,98473.41
2018-01-20T21:48:45.567Z,98468.28
2018-01-20T21:51:11.923Z,98462.59
2018-01-20T21:53:38.314Z,98463.89
2018-01-20T21:56:04.634Z,98460.73
2018-01-20T21:58:30.936Z,98460.55
2018-01-20T22:00:58.052Z,98465.12
2018-01-20T22:03:24.345Z,98463.63
2018-01-20T22:05:50.645Z,98464.45
2018-01-20T22:08:17.632Z,98468.92
2018-01-20T22:10:43.919Z,98469.22
2018-01-20T22:13:10.178Z,98468.25
2018-01-20T22:15:36.520Z,98466.06
2018-01-20T22:18:02.786Z,98467.05
2018-01-20T22:20:29.064Z,98470.44
2018-01-20T22:22:56.092Z,98461.59
2018-01-20T22:25:23.249Z,98461.94
2018-01-20T22:27:50.281Z,98461.94
2018-01-20T22:30:16.576Z,98464.58
2018-01-20T22:32:42.822Z,98460.70
2018-01-20T22:35:09.099Z,98456.77
2018-01-20T22:37:35.356Z,98457.77
2018-01-20T22:40:01.621Z,98455.13
2018-01-20T22:42:27.921Z,98454.97
2018-01-20T22:44:54.852Z,98459.02
2018-01-20T22:47:21.096Z,98460.55
2018-01-20T22:49:47.398Z,98462.16
2018-01-20T22:52:13.689Z,98469.61
2018-01-20T22:54:39.960Z,98469.78
2018-01-20T22:57:07.132Z,98468.48
2018-01-20T22:59:33.443Z,98468.22
2018-01-20T23:02:00.720Z,98463.98
2018-01-20T23:04:26.941Z,98460.70
2018-01-20T23:06:53.217Z,98457.09
2018-01-20T23:09:19.494Z,98459.36
2018-01-20T23:11:45.736Z,98462.78
2018-01-20T23:14:11.968Z,98465.54
2018-01-20T23:16:38.200Z,98463.83
2018-01-20T23:19:05.356Z,98462.11
2018-01-20T23:21:31.720Z,98457.62
2018-01-20T23:23:58.071Z,98464.17
2018-01-20T23:26:25.049Z,98465.21
2018-01-20T23:28:51.287Z,98465.17
2018-01-20T23:31:17.496Z,98461.70
2018-01-20T23:33:43.718Z,98463.14
2018-01-20T23:36:10.011Z,98458.94
2018-01-20T23:38:36.246Z,98455.33
2018-01-20T23:41:03.239Z,98456.16
2018-01-20T23:43:29.489Z,98461.85
2018-01-20T23:45:56.679Z,98458.29
2018-01-20T23:48:24.582Z,98467.50
2018-01-20T23:50:50.792Z,98469.67
2018-01-20T23:53:17.080Z,98466.66
2018-01-20T23:55:43.321Z,98464.48
2018-01-20T23:58:09.599Z,98458.53
